sensor_id;sensor_type;location;lat;lon;timestamp;P1;durP1;ratioP1;P2;durP2;ratioP2
1715;SDS011;855;48.824;9.220;2022-10-16T05:04:28;1.80;;;1.27;;
1715;SDS011;855;48.824;9.220;2022-10-16T05:06:55;1.73;;;1.17;;
1715;SDS011;855;48.824;9.220;2022-10-16T05:09:22;1.33;;;0.77;;
1715;SDS011;855;48.824;9.220;2022-10-16T05:11:48;0.80;;;0.70;;
1715;SDS011;855;48.824;9.220;2022-10-16T05:14:15;1.23;;;0.90;;
1715;SDS011;855;48.824;9.220;2022-10-16T05:16:42;4.87;;;1.90;;
1715;SDS011;855;48.824;9.220;2022-10-16T05:19:09;2.03;;;1.00;;
1715;SDS011;855;48.824;9.220;2022-10-16T05:21:37;1.80;;;0.90;;
1715;SDS011;855;48.824;9.220;2022-10-16T05:24:04;1.10;;;1.00;;
1715;SDS011;855;48.824;9.220;2022-10-16T05:26:31;0.87;;;0.83;;
1715;SDS011;855;48.824;9.220;2022-10-16T05:28:58;0.80;;;0.70;;
1715;SDS011;855;48.824;9.220;2022-10-16T05:31:24;2.10;;;1.50;;
1715;SDS011;855;48.824;9.220;2022-10-16T05:33:51;1.90;;;0.87;;
1715;SDS011;855;48.824;9.220;2022-10-16T05:36:18;1.43;;;1.20;;
1715;SDS011;855;48.824;9.220;2022-10-16T05:38:50;1.10;;;1.00;;
1715;SDS011;855;48.824;9.220;2022-10-16T05:41:16;0.90;;;0.83;;
1715;SDS011;855;48.824;9.220;2022-10-16T05:43:46;1.33;;;1.13;;
1715;SDS011;855;48.824;9.220;2022-10-16T05:46:14;0.97;;;0.70;;
1715;SDS011;855;48.824;9.220;2022-10-16T05:48:42;1.53;;;1.10;;
1715;SDS011;855;48.824;9.220;2022-10-16T05:51:09;2.07;;;1.23;;
1715;SDS011;855;48.824;9.220;2022-10-16T05:53:38;2.30;;;1.60;;
1715;SDS011;855;48.824;9.220;2022-10-16T05:56:08;0.90;;;0.80;;
1715;SDS011;855;48.824;9.220;2022-10-16T05:58:37;1.27;;;0.97;;
1715;SDS011;855;48.824;9.220;2022-10-16T06:01:06;3.57;;;1.13;;
1715;SDS011;855;48.824;9.220;2022-10-16T06:03:35;4.20;;;0.97;;
1715;SDS011;855;48.824;9.220;2022-10-16T06:06:07;2.73;;;1.23;;
1715;SDS011;855;48.824;9.220;2022-10-16T06:08:34;2.50;;;1.07;;
1715;SDS011;855;48.824;9.220;2022-10-16T06:11:02;2.80;;;0.90;;
1715;SDS011;855;48.824;9.220;2022-10-16T06:13:31;0.77;;;0.67;;
1715;SDS011;855;48.824;9.220;2022-10-16T06:15:58;1.33;;;0.67;;
1715;SDS011;855;48.824;9.220;2022-10-16T06:18:26;0.70;;;0.60;;
1715;SDS011;855;48.824;9.220;2022-10-16T06:20:53;1.67;;;0.83;;
1715;SDS011;855;48.824;9.220;2022-10-16T06:23:21;2.53;;;1.57;;
1715;SDS011;855;48.824;9.220;2022-10-16T06:25:48;1.23;;;0.90;;
1715;SDS011;855;48.824;9.220;2022-10-16T06:28:15;1.40;;;0.93;;
1715;SDS011;855;48.824;9.220;2022-10-16T06:30:43;2.30;;;1.47;;
1715;SDS011;855;48.824;9.220;2022-10-16T06:33:10;2.47;;;1.27;;
1715;SDS011;855;48.824;9.220;2022-10-16T06:35:37;1.33;;;1.00;;
1715;SDS011;855;48.824;9.220;2022-10-16T06:38:04;2.87;;;0.80;;
1715;SDS011;855;48.824;9.220;2022-10-16T06:40:31;1.13;;;1.00;;
1715;SDS011;855;48.824;9.220;2022-10-16T06:42:58;3.90;;;0.83;;
1715;SDS011;855;48.824;9.220;2022-10-16T06:45:24;1.90;;;0.87;;
1715;SDS011;855;48.824;9.220;2022-10-16T06:47:52;2.23;;;1.40;;
1715;SDS011;855;48.824;9.220;2022-10-16T06:50:19;1.27;;;1.20;;
1715;SDS011;855;48.824;9.220;2022-10-16T06:52:46;1.10;;;1.00;;
1715;SDS011;855;48.824;9.220;2022-10-16T06:55:13;2.17;;;1.40;;
1715;SDS011;855;48.824;9.220;2022-10-16T06:57:41;1.70;;;1.47;;
1715;SDS011;855;48.824;9.220;2022-10-16T07:00:09;1.70;;;0.97;;
1715;SDS011;855;48.824;9.220;2022-10-16T07:02:36;2.00;;;1.10;;
1715;SDS011;855;48.824;9.220;2022-10-16T07:05:04;2.00;;;1.17;;
1715;SDS011;855;48.824;9.220;2022-10-16T07:07:31;3.57;;;1.07;;
1715;SDS011;855;48.824;9.220;2022-10-16T07:09:58;0.50;;;0.50;;
1715;SDS011;855;48.824;9.220;2022-10-16T07:12:25;2.10;;;1.60;;
1715;SDS011;855;48.824;9.220;2022-10-16T07:14:51;2.73;;;1.33;;
1715;SDS011;855;48.824;9.220;2022-10-16T07:17:19;3.87;;;1.30;;
1715;SDS011;855;48.824;9.220;2022-10-16T07:19:46;0.77;;;0.67;;
1715;SDS011;855;48.824;9.220;2022-10-16T07:22:14;2.13;;;1.40;;
1715;SDS011;855;48.824;9.220;2022-10-16T07:24:41;1.47;;;0.70;;
1715;SDS011;855;48.824;9.220;2022-10-16T07:27:08;1.50;;;0.80;;
1715;SDS011;855;48.824;9.220;2022-10-16T07:29:35;1.60;;;0.83;;
1715;SDS011;855;48.824;9.220;2022-10-16T07:32:02;1.23;;;0.70;;
1715;SDS011;855;48.824;9.220;2022-10-16T07:34:29;4.63;;;1.80;;
1715;SDS011;855;48.824;9.220;2022-10-16T07:36:56;1.00;;;0.93;;
1715;SDS011;855;48.824;9.220;2022-10-16T07:57:31;4.63;;;2.03;;
1715;SDS011;855;48.824;9.220;2022-10-16T07:59:58;1.73;;;1.60;;
1715;SDS011;855;48.824;9.220;2022-10-16T08:02:25;4.40;;;2.00;;
1715;SDS011;855;48.824;9.220;2022-10-16T08:04:52;4.57;;;1.37;;
1715;SDS011;855;48.824;9.220;2022-10-16T08:07:19;2.53;;;1.53;;
1715;SDS011;855;48.824;9.220;2022-10-16T08:09:48;3.37;;;1.63;;
1715;SDS011;855;48.824;9.220;2022-10-16T08:12:16;2.83;;;1.87;;
1715;SDS011;855;48.824;9.220;2022-10-16T08:14:44;1.10;;;0.80;;
1715;SDS011;855;48.824;9.220;2022-10-16T08:17:13;1.70;;;1.10;;
1715;SDS011;855;48.824;9.220;2022-10-16T09:07:21;2.60;;;0.90;;
1715;SDS011;855;48.824;9.220;2022-10-16T09:10:00;1.33;;;0.80;;
1715;SDS011;855;48.824;9.220;2022-10-16T09:20:56;2.60;;;1.70;;
1715;SDS011;855;48.824;9.220;2022-10-16T09:27:18;2.00;;;1.00;;
1715;SDS011;855;48.824;9.220;2022-10-16T09:29:46;1.13;;;1.03;;
1715;SDS011;855;48.824;9.220;2022-10-16T09:32:13;0.73;;;0.60;;
1715;SDS011;855;48.824;9.220;2022-10-16T09:34:43;4.20;;;1.20;;
1715;SDS011;855;48.824;9.220;2022-10-16T09:37:16;0.80;;;0.70;;
1715;SDS011;855;48.824;9.220;2022-10-16T09:40:01;1.30;;;1.20;;
1715;SDS011;855;48.824;9.220;2022-10-16T09:42:30;1.67;;;0.83;;
1715;SDS011;855;48.824;9.220;2022-10-16T09:44:58;0.73;;;0.57;;
1715;SDS011;855;48.824;9.220;2022-10-16T09:47:26;1.13;;;0.70;;
1715;SDS011;855;48.824;9.220;2022-10-16T09:49:55;1.30;;;0.53;;
1715;SDS011;855;48.824;9.220;2022-10-16T09:52:24;0.90;;;0.67;;
1715;SDS011;855;48.824;9.220;2022-10-16T09:54:52;1.93;;;0.73;;
1715;SDS011;855;48.824;9.220;2022-10-16T09:57:20;1.80;;;1.10;;
1715;SDS011;855;48.824;9.220;2022-10-16T09:59:49;0.73;;;0.60;;
1715;SDS011;855;48.824;9.220;2022-10-16T10:02:18;1.13;;;0.63;;
1715;SDS011;855;48.824;9.220;2022-10-16T10:04:50;1.33;;;0.80;;
1715;SDS011;855;48.824;9.220;2022-10-16T10:07:20;1.20;;;0.90;;
1715;SDS011;855;48.824;9.220;2022-10-16T10:09:50;1.13;;;0.60;;
1715;SDS011;855;48.824;9.220;2022-10-16T10:12:18;2.80;;;1.43;;
1715;SDS011;855;48.824;9.220;2022-10-16T10:14:47;1.27;;;0.90;;
1715;SDS011;855;48.824;9.220;2022-10-16T10:17:18;0.67;;;0.57;;
1715;SDS011;855;48.824;9.220;2022-10-16T10:19:47;2.47;;;0.83;;
1715;SDS011;855;48.824;9.220;2022-10-16T10:22:22;0.53;;;0.50;;
1715;SDS011;855;48.824;9.220;2022-10-16T10:25:07;1.73;;;1.17;;
1715;SDS011;855;48.824;9.220;2022-10-16T10:27:45;1.00;;;0.70;;
1715;SDS011;855;48.824;9.220;2022-10-16T10:30:25;2.87;;;1.70;;
1715;SDS011;855;48.824;9.220;2022-10-16T10:33:04;0.80;;;0.80;;
1715;SDS011;855;48.824;9.220;2022-10-16T10:35:42;1.63;;;0.90;;
1715;SDS011;855;48.824;9.220;2022-10-16T10:38:21;1.43;;;0.93;;
1715;SDS011;855;48.824;9.220;2022-10-16T10:40:59;1.60;;;0.90;;
1715;SDS011;855;48.824;9.220;2022-10-16T10:43:39;1.70;;;1.10;;
1715;SDS011;855;48.824;9.220;2022-10-16T10:46:23;0.50;;;0.50;;
1715;SDS011;855;48.824;9.220;2022-10-16T10:49:00;1.07;;;0.90;;
1715;SDS011;855;48.824;9.220;2022-10-16T10:51:37;1.17;;;1.03;;
1715;SDS011;855;48.824;9.220;2022-10-16T10:54:11;1.00;;;0.60;;
1715;SDS011;855;48.824;9.220;2022-10-16T10:56:47;2.10;;;1.27;;
1715;SDS011;855;48.824;9.220;2022-10-16T10:59:22;0.90;;;0.90;;
1715;SDS011;855;48.824;9.220;2022-10-16T11:02:07;1.20;;;0.90;;
1715;SDS011;855;48.824;9.220;2022-10-16T11:07:42;1.70;;;1.10;;
1715;SDS011;855;48.824;9.220;2022-10-16T11:10:14;1.17;;;0.67;;
1715;SDS011;855;48.824;9.220;2022-10-16T11:12:44;1.03;;;0.73;;
1715;SDS011;855;48.824;9.220;2022-10-16T11:15:14;0.73;;;0.70;;
1715;SDS011;855;48.824;9.220;2022-10-16T11:17:48;0.60;;;0.50;;
1715;SDS011;855;48.824;9.220;2022-10-16T11:20:20;1.83;;;0.97;;
1715;SDS011;855;48.824;9.220;2022-10-16T11:22:50;3.83;;;1.40;;
1715;SDS011;855;48.824;9.220;2022-10-16T11:25:21;1.57;;;0.83;;
1715;SDS011;855;48.824;9.220;2022-10-16T11:27:53;1.63;;;0.40;;
1715;SDS011;855;48.824;9.220;2022-10-16T11:30:24;0.70;;;0.63;;
1715;SDS011;855;48.824;9.220;2022-10-16T11:32:56;0.53;;;0.50;;
1715;SDS011;855;48.824;9.220;2022-10-16T11:35:33;2.07;;;0.97;;
1715;SDS011;855;48.824;9.220;2022-10-16T11:38:09;0.80;;;0.70;;
1715;SDS011;855;48.824;9.220;2022-10-16T11:40:41;1.10;;;0.73;;
1715;SDS011;855;48.824;9.220;2022-10-16T11:43:13;1.77;;;0.80;;
1715;SDS011;855;48.824;9.220;2022-10-16T11:45:43;2.90;;;0.60;;
1715;SDS011;855;48.824;9.220;2022-10-16T11:48:18;0.60;;;0.60;;
1715;SDS011;855;48.824;9.220;2022-10-16T11:50:52;1.53;;;0.83;;
1715;SDS011;855;48.824;9.220;2022-10-16T11:53:23;1.07;;;0.87;;
1715;SDS011;855;48.824;9.220;2022-10-16T11:55:57;6.57;;;1.10;;
1715;SDS011;855;48.824;9.220;2022-10-16T11:58:24;1.13;;;0.50;;
1715;SDS011;855;48.824;9.220;2022-10-16T12:00:59;1.27;;;0.63;;
1715;SDS011;855;48.824;9.220;2022-10-16T12:03:39;0.60;;;0.60;;
1715;SDS011;855;48.824;9.220;2022-10-16T12:06:14;1.83;;;0.87;;
1715;SDS011;855;48.824;9.220;2022-10-16T12:08:50;1.90;;;0.90;;
1715;SDS011;855;48.824;9.220;2022-10-16T12:11:31;0.90;;;0.87;;
1715;SDS011;855;48.824;9.220;2022-10-16T12:14:17;0.63;;;0.57;;
1715;SDS011;855;48.824;9.220;2022-10-16T12:16:58;5.80;;;0.80;;
1715;SDS011;855;48.824;9.220;2022-10-16T12:19:28;0.97;;;0.63;;
1715;SDS011;855;48.824;9.220;2022-10-16T12:21:57;1.90;;;0.67;;
1715;SDS011;855;48.824;9.220;2022-10-16T12:24:33;0.80;;;0.50;;
1715;SDS011;855;48.824;9.220;2022-10-16T12:27:02;1.63;;;0.90;;
1715;SDS011;855;48.824;9.220;2022-10-16T12:29:32;1.23;;;0.50;;
1715;SDS011;855;48.824;9.220;2022-10-16T12:32:02;1.37;;;0.97;;
1715;SDS011;855;48.824;9.220;2022-10-16T12:34:35;1.77;;;0.80;;
1715;SDS011;855;48.824;9.220;2022-10-16T12:37:09;3.53;;;1.20;;
1715;SDS011;855;48.824;9.220;2022-10-16T12:39:39;1.37;;;0.93;;
1715;SDS011;855;48.824;9.220;2022-10-16T12:42:19;1.00;;;0.67;;
1715;SDS011;855;48.824;9.220;2022-10-16T12:44:48;5.70;;;1.10;;
1715;SDS011;855;48.824;9.220;2022-10-16T12:47:20;6.17;;;1.20;;
1715;SDS011;855;48.824;9.220;2022-10-16T12:49:50;0.93;;;0.80;;
1715;SDS011;855;48.824;9.220;2022-10-16T12:52:25;0.83;;;0.60;;
1715;SDS011;855;48.824;9.220;2022-10-16T12:54:55;1.20;;;0.97;;
1715;SDS011;855;48.824;9.220;2022-10-16T12:57:30;1.40;;;1.00;;
1715;SDS011;855;48.824;9.220;2022-10-16T13:00:04;1.03;;;0.83;;
1715;SDS011;855;48.824;9.220;2022-10-16T13:02:44;3.20;;;0.93;;
1715;SDS011;855;48.824;9.220;2022-10-16T13:05:25;1.20;;;0.80;;
1715;SDS011;855;48.824;9.220;2022-10-16T13:08:02;1.50;;;0.70;;
1715;SDS011;855;48.824;9.220;2022-10-16T13:10:41;1.87;;;0.60;;
1715;SDS011;855;48.824;9.220;2022-10-16T13:16:08;2.30;;;0.83;;
1715;SDS011;855;48.824;9.220;2022-10-16T13:18:44;3.20;;;1.57;;
1715;SDS011;855;48.824;9.220;2022-10-16T13:21:29;1.43;;;0.80;;
1715;SDS011;855;48.824;9.220;2022-10-16T13:24:02;0.90;;;0.60;;
1715;SDS011;855;48.824;9.220;2022-10-16T13:26:41;0.50;;;0.50;;
1715;SDS011;855;48.824;9.220;2022-10-16T13:29:12;1.30;;;0.90;;
1715;SDS011;855;48.824;9.220;2022-10-16T13:31:39;1.50;;;0.70;;
1715;SDS011;855;48.824;9.220;2022-10-16T13:34:10;3.83;;;1.43;;
1715;SDS011;855;48.824;9.220;2022-10-16T13:36:44;2.20;;;0.70;;
1715;SDS011;855;48.824;9.220;2022-10-16T13:39:15;1.13;;;0.77;;
1715;SDS011;855;48.824;9.220;2022-10-16T13:41:57;10.83;;;0.93;;
1715;SDS011;855;48.824;9.220;2022-10-16T13:44:26;1.63;;;1.27;;
1715;SDS011;855;48.824;9.220;2022-10-16T13:46:58;2.00;;;0.67;;
1715;SDS011;855;48.824;9.220;2022-10-16T13:49:25;2.63;;;1.13;;
1715;SDS011;855;48.824;9.220;2022-10-16T13:51:56;0.80;;;0.60;;
1715;SDS011;855;48.824;9.220;2022-10-16T13:54:24;1.13;;;0.70;;
1715;SDS011;855;48.824;9.220;2022-10-16T13:56:53;0.93;;;0.67;;
1715;SDS011;855;48.824;9.220;2022-10-16T13:59:22;1.47;;;0.60;;
1715;SDS011;855;48.824;9.220;2022-10-16T14:01:50;1.37;;;0.90;;
1715;SDS011;855;48.824;9.220;2022-10-16T14:04:20;1.07;;;0.80;;
1715;SDS011;855;48.824;9.220;2022-10-16T14:06:48;0.60;;;0.50;;
1715;SDS011;855;48.824;9.220;2022-10-16T14:09:20;0.73;;;0.60;;
1715;SDS011;855;48.824;9.220;2022-10-16T14:11:51;0.70;;;0.60;;
1715;SDS011;855;48.824;9.220;2022-10-16T14:14:21;2.17;;;1.00;;
1715;SDS011;855;48.824;9.220;2022-10-16T14:16:48;0.70;;;0.70;;
1715;SDS011;855;48.824;9.220;2022-10-16T14:19:18;1.57;;;0.70;;
1715;SDS011;855;48.824;9.220;2022-10-16T14:21:48;1.30;;;1.00;;
1715;SDS011;855;48.824;9.220;2022-10-16T14:24:24;0.90;;;0.80;;
1715;SDS011;855;48.824;9.220;2022-10-16T14:26:53;1.50;;;0.80;;
1715;SDS011;855;48.824;9.220;2022-10-16T14:29:21;1.10;;;0.80;;
1715;SDS011;855;48.824;9.220;2022-10-16T14:31:56;0.70;;;0.67;;
1715;SDS011;855;48.824;9.220;2022-10-16T14:34:25;0.70;;;0.60;;
1715;SDS011;855;48.824;9.220;2022-10-16T14:36:54;1.33;;;0.80;;
1715;SDS011;855;48.824;9.220;2022-10-16T14:39:21;1.00;;;0.90;;
1715;SDS011;855;48.824;9.220;2022-10-16T14:41:51;2.83;;;0.97;;
1715;SDS011;855;48.824;9.220;2022-10-16T14:44:22;2.00;;;0.90;;
1715;SDS011;855;48.824;9.220;2022-10-16T14:46:53;1.93;;;0.90;;
1715;SDS011;855;48.824;9.220;2022-10-16T14:49:20;1.47;;;0.80;;
1715;SDS011;855;48.824;9.220;2022-10-16T14:51:49;1.83;;;1.00;;
1715;SDS011;855;48.824;9.220;2022-10-16T14:54:17;0.70;;;0.60;;
1715;SDS011;855;48.824;9.220;2022-10-16T14:56:47;0.77;;;0.70;;
1715;SDS011;855;48.824;9.220;2022-10-16T14:59:17;2.30;;;0.87;;
1715;SDS011;855;48.824;9.220;2022-10-16T15:01:48;0.70;;;0.60;;
1715;SDS011;855;48.824;9.220;2022-10-16T15:04:15;0.80;;;0.73;;
1715;SDS011;855;48.824;9.220;2022-10-16T15:06:42;2.23;;;1.37;;
1715;SDS011;855;48.824;9.220;2022-10-16T15:09:09;1.80;;;0.97;;
1715;SDS011;855;48.824;9.220;2022-10-16T15:11:36;0.80;;;0.70;;
1715;SDS011;855;48.824;9.220;2022-10-16T15:14:05;3.03;;;1.27;;
1715;SDS011;855;48.824;9.220;2022-10-16T15:16:34;1.00;;;0.50;;
1715;SDS011;855;48.824;9.220;2022-10-16T15:19:01;4.47;;;1.60;;
1715;SDS011;855;48.824;9.220;2022-10-16T15:21:28;1.70;;;0.90;;
1715;SDS011;855;48.824;9.220;2022-10-16T15:23:56;1.80;;;1.03;;
1715;SDS011;855;48.824;9.220;2022-10-16T15:26:24;0.87;;;0.83;;
1715;SDS011;855;48.824;9.220;2022-10-16T15:28:52;3.53;;;1.10;;
1715;SDS011;855;48.824;9.220;2022-10-16T15:31:20;1.27;;;1.27;;
1715;SDS011;855;48.824;9.220;2022-10-16T15:33:49;0.77;;;0.67;;
1715;SDS011;855;48.824;9.220;2022-10-16T15:36:24;1.53;;;0.70;;
1715;SDS011;855;48.824;9.220;2022-10-16T15:38:51;1.13;;;0.83;;
1715;SDS011;855;48.824;9.220;2022-10-16T15:41:18;1.50;;;1.30;;
1715;SDS011;855;48.824;9.220;2022-10-16T15:43:47;1.30;;;1.20;;
1715;SDS011;855;48.824;9.220;2022-10-16T15:46:14;3.13;;;1.87;;
1715;SDS011;855;48.824;9.220;2022-10-16T15:48:44;4.27;;;1.30;;
1715;SDS011;855;48.824;9.220;2022-10-16T15:51:11;0.77;;;0.60;;
1715;SDS011;855;48.824;9.220;2022-10-16T15:53:39;1.70;;;0.83;;
1715;SDS011;855;48.824;9.220;2022-10-16T15:56:06;1.93;;;1.50;;
1715;SDS011;855;48.824;9.220;2022-10-16T15:58:34;2.70;;;1.10;;
1715;SDS011;855;48.824;9.220;2022-10-16T16:01:01;2.60;;;1.33;;
1715;SDS011;855;48.824;9.220;2022-10-16T16:03:29;0.90;;;0.90;;
1715;SDS011;855;48.824;9.220;2022-10-16T16:05:58;3.70;;;1.80;;
1715;SDS011;855;48.824;9.220;2022-10-16T16:08:29;1.70;;;1.10;;
1715;SDS011;855;48.824;9.220;2022-10-16T16:10:57;1.20;;;0.93;;
1715;SDS011;855;48.824;9.220;2022-10-16T16:13:24;1.33;;;0.80;;
1715;SDS011;855;48.824;9.220;2022-10-16T16:15:51;2.00;;;1.17;;
1715;SDS011;855;48.824;9.220;2022-10-16T16:18:18;1.53;;;1.10;;
1715;SDS011;855;48.824;9.220;2022-10-16T16:20:45;5.77;;;2.13;;
1715;SDS011;855;48.824;9.220;2022-10-16T16:23:13;3.33;;;1.97;;
1715;SDS011;855;48.824;9.220;2022-10-16T16:25:40;2.67;;;1.87;;
1715;SDS011;855;48.824;9.220;2022-10-16T16:28:07;3.03;;;1.87;;
1715;SDS011;855;48.824;9.220;2022-10-16T16:30:35;42.47;;;2.90;;
1715;SDS011;855;48.824;9.220;2022-10-16T16:33:02;2.00;;;1.37;;
1715;SDS011;855;48.824;9.220;2022-10-16T16:35:29;2.50;;;1.63;;
1715;SDS011;855;48.824;9.220;2022-10-16T16:37:56;1.40;;;1.20;;
1715;SDS011;855;48.824;9.220;2022-10-16T16:40:24;1.87;;;1.10;;
1715;SDS011;855;48.824;9.220;2022-10-16T16:42:51;4.63;;;1.13;;
1715;SDS011;855;48.824;9.220;2022-10-16T16:45:18;0.60;;;0.60;;
1715;SDS011;855;48.824;9.220;2022-10-16T16:47:45;1.07;;;0.97;;
1715;SDS011;855;48.824;9.220;2022-10-16T16:50:12;1.67;;;0.90;;
1715;SDS011;855;48.824;9.220;2022-10-16T16:52:39;2.30;;;1.63;;
1715;SDS011;855;48.824;9.220;2022-10-16T16:55:06;4.43;;;2.20;;
1715;SDS011;855;48.824;9.220;2022-10-16T16:57:34;6.90;;;3.80;;
1715;SDS011;855;48.824;9.220;2022-10-16T17:00:02;3.90;;;1.60;;
1715;SDS011;855;48.824;9.220;2022-10-16T17:02:29;2.97;;;1.23;;
1715;SDS011;855;48.824;9.220;2022-10-16T17:04:57;2.53;;;1.80;;
1715;SDS011;855;48.824;9.220;2022-10-16T17:07:24;1.10;;;1.03;;
1715;SDS011;855;48.824;9.220;2022-10-16T17:09:52;1.93;;;1.47;;
1715;SDS011;855;48.824;9.220;2022-10-16T17:12:19;1.90;;;1.33;;
1715;SDS011;855;48.824;9.220;2022-10-16T17:14:47;3.60;;;1.73;;
1715;SDS011;855;48.824;9.220;2022-10-16T17:17:16;2.20;;;1.33;;
1715;SDS011;855;48.824;9.220;2022-10-16T17:19:43;1.77;;;1.10;;
1715;SDS011;855;48.824;9.220;2022-10-16T17:22:09;2.97;;;1.53;;
1715;SDS011;855;48.824;9.220;2022-10-16T17:24:36;3.17;;;1.73;;
1715;SDS011;855;48.824;9.220;2022-10-16T17:27:03;6.03;;;2.20;;
1715;SDS011;855;48.824;9.220;2022-10-16T17:29:30;5.00;;;2.20;;
1715;SDS011;855;48.824;9.220;2022-10-16T17:31:58;2.83;;;1.70;;
1715;SDS011;855;48.824;9.220;2022-10-16T17:34:25;2.93;;;1.40;;
1715;SDS011;855;48.824;9.220;2022-10-16T17:36:51;2.93;;;1.43;;
1715;SDS011;855;48.824;9.220;2022-10-16T17:39:18;3.53;;;1.80;;
1715;SDS011;855;48.824;9.220;2022-10-16T17:41:45;3.77;;;1.47;;
1715;SDS011;855;48.824;9.220;2022-10-16T17:44:14;1.50;;;1.50;;
1715;SDS011;855;48.824;9.220;2022-10-16T17:46:44;3.50;;;1.53;;
1715;SDS011;855;48.824;9.220;2022-10-16T17:52:14;3.23;;;1.57;;
1715;SDS011;855;48.824;9.220;2022-10-16T17:54:41;4.60;;;1.80;;
1715;SDS011;855;48.824;9.220;2022-10-16T17:57:08;2.57;;;2.00;;
1715;SDS011;855;48.824;9.220;2022-10-16T18:44:18;7.20;;;2.57;;
1715;SDS011;855;48.824;9.220;2022-10-16T19:01:28;6.87;;;2.03;;
1715;SDS011;855;48.824;9.220;2022-10-16T19:03:57;6.03;;;2.60;;
1715;SDS011;855;48.824;9.220;2022-10-16T19:06:27;3.80;;;1.70;;
1715;SDS011;855;48.824;9.220;2022-10-16T19:08:54;7.23;;;2.30;;
1715;SDS011;855;48.824;9.220;2022-10-16T19:11:22;3.73;;;2.03;;
1715;SDS011;855;48.824;9.220;2022-10-16T19:13:59;5.07;;;2.07;;
1715;SDS011;855;48.824;9.220;2022-10-16T19:16:28;6.80;;;2.13;;
1715;SDS011;855;48.824;9.220;2022-10-16T19:18:56;4.33;;;1.97;;
1715;SDS011;855;48.824;9.220;2022-10-16T19:21:25;3.10;;;2.20;;
1715;SDS011;855;48.824;9.220;2022-10-16T19:23:54;5.80;;;2.60;;
1715;SDS011;855;48.824;9.220;2022-10-16T19:26:22;5.20;;;1.97;;
1715;SDS011;855;48.824;9.220;2022-10-16T19:34:02;3.87;;;2.20;;
1715;SDS011;855;48.824;9.220;2022-10-16T19:36:32;3.10;;;1.70;;
1715;SDS011;855;48.824;9.220;2022-10-16T19:39:02;6.80;;;2.70;;
1715;SDS011;855;48.824;9.220;2022-10-16T19:41:30;6.57;;;3.00;;
1715;SDS011;855;48.824;9.220;2022-10-16T19:43:59;5.20;;;1.90;;
1715;SDS011;855;48.824;9.220;2022-10-16T19:46:27;4.00;;;1.83;;
1715;SDS011;855;48.824;9.220;2022-10-16T19:48:55;1.53;;;1.50;;
1715;SDS011;855;48.824;9.220;2022-10-16T19:51:26;3.87;;;1.83;;
1715;SDS011;855;48.824;9.220;2022-10-16T19:53:54;4.37;;;2.37;;
1715;SDS011;855;48.824;9.220;2022-10-16T19:56:22;5.50;;;1.97;;
1715;SDS011;855;48.824;9.220;2022-10-16T19:58:51;2.57;;;2.13;;
1715;SDS011;855;48.824;9.220;2022-10-16T20:01:20;4.27;;;2.40;;
1715;SDS011;855;48.824;9.220;2022-10-16T20:03:48;5.20;;;2.30;;
1715;SDS011;855;48.824;9.220;2022-10-16T20:06:15;3.93;;;2.37;;
1715;SDS011;855;48.824;9.220;2022-10-16T20:08:45;3.93;;;1.90;;
1715;SDS011;855;48.824;9.220;2022-10-16T20:11:14;6.90;;;3.57;;
1715;SDS011;855;48.824;9.220;2022-10-16T20:13:42;3.07;;;2.03;;
1715;SDS011;855;48.824;9.220;2022-10-16T20:16:09;3.47;;;2.33;;
1715;SDS011;855;48.824;9.220;2022-10-16T20:18:37;2.73;;;1.90;;
1715;SDS011;855;48.824;9.220;2022-10-16T20:21:09;12.30;;;3.00;;
1715;SDS011;855;48.824;9.220;2022-10-16T20:23:37;4.20;;;1.80;;
1715;SDS011;855;48.824;9.220;2022-10-16T20:26:06;3.33;;;1.90;;
1715;SDS011;855;48.824;9.220;2022-10-16T20:28:35;3.17;;;2.10;;
1715;SDS011;855;48.824;9.220;2022-10-16T20:31:05;6.60;;;2.67;;
1715;SDS011;855;48.824;9.220;2022-10-16T20:33:33;5.93;;;2.00;;
1715;SDS011;855;48.824;9.220;2022-10-16T20:41:13;8.43;;;2.27;;
1715;SDS011;855;48.824;9.220;2022-10-16T20:43:41;2.90;;;1.63;;
1715;SDS011;855;48.824;9.220;2022-10-16T20:46:10;7.37;;;2.07;;
1715;SDS011;855;48.824;9.220;2022-10-16T20:48:38;3.97;;;1.63;;
1715;SDS011;855;48.824;9.220;2022-10-16T20:51:12;3.57;;;1.70;;
1715;SDS011;855;48.824;9.220;2022-10-16T20:53:41;6.77;;;2.50;;
1715;SDS011;855;48.824;9.220;2022-10-16T20:56:08;4.47;;;2.10;;
1715;SDS011;855;48.824;9.220;2022-10-16T20:58:38;2.87;;;2.47;;
1715;SDS011;855;48.824;9.220;2022-10-16T21:01:06;5.13;;;2.07;;
1715;SDS011;855;48.824;9.220;2022-10-16T21:03:35;3.53;;;2.10;;
1715;SDS011;855;48.824;9.220;2022-10-16T21:06:03;4.67;;;2.13;;
1715;SDS011;855;48.824;9.220;2022-10-16T21:08:30;2.60;;;2.30;;
1715;SDS011;855;48.824;9.220;2022-10-16T21:11:00;4.03;;;2.03;;
1715;SDS011;855;48.824;9.220;2022-10-16T21:29:08;3.73;;;1.70;;
1715;SDS011;855;48.824;9.220;2022-10-16T21:31:37;3.80;;;2.20;;
1715;SDS011;855;48.824;9.220;2022-10-16T21:34:05;4.87;;;2.47;;
1715;SDS011;855;48.824;9.220;2022-10-16T21:44:20;2.23;;;1.60;;
1715;SDS011;855;48.824;9.220;2022-10-16T21:49:22;4.07;;;1.83;;
